Manama, Bahrain

5:03 AM AST on February 08, 2016 (GMT +0300)
North Hamala | | Change Station
CLOSE
Current Station
Personal Weather Station
Location: Bahrain,
Elevation: 26 ft
Nearby Weather Stations

Elev 26 ft 26.15 °N, 50.47 °E | Updated 25 seconds ago

Clear
Clear
63.5 °F
Feels Like 63.5 °F
N
1.8
Wind Variable Wind from West
Gusts 2.5 mph

Today
High -- | Low -- °F
--% Chance of Precip.
Yesterday
High -- | Low -- °F
Precip. -- in
Pressure 29.92 in
Visibility -9999.0 miles
Clouds
Dew Point 53 °F
Humidity 68%
Rainfall 0.00 in
Snow Depth Not available.
6:18 AM 5:24 PM
Waning Crescent, 0% visible
METAR OEDF 080200Z 32008KT CAVOK 16/04 Q1013 NOSIG
Pressure 29.92 in
Visibility -9999.0 miles
Clouds
Dew Point 53 °F
Humidity 68%
Rainfall 0.00 in
Snow Depth Not available.
6:18 AM 5:24 PM
Waning Crescent, 0% visible
METAR OEDF 080200Z 32008KT CAVOK 16/04 Q1013 NOSIG

10-Day Weather Forecast

No radar image for this location.
×

Almanac

Astronomy

Feb. 08, 2016 Rise Set
Actual Time
Civil Twilight
Nautical Twilight
Astronomical Twilight
Moon
Length of Visible Light
Length of Day
Tomorrow will be .
, % of the Moon is Illuminated

Today's Extremes

Country Highs Country Lows

Community

WunderPhotos

Upload Photos

1,891,363 photos uploaded!

WunderBlog® & News

Nearby

Air Quality

  Air Quality AQ Index Pollutant
Not available.

Snow Depth

Station Depth Elevation

Earthquake Activity

City Distance Mag. Time & Date
Minimum magnitude displayed is 2.5.

Coastal Water Temperatures

Place Temperature

Stations

Nearby Weather Stations

Station Location Temp. Windchill Dew Point Humidity Wind Precip. Elev Updated Type